createdAt,value
2018-04-23T00:00:29.257Z,40.50
2018-04-23T00:02:22.557Z,41.70
2018-04-23T00:03:22.475Z,42.10
2018-04-23T00:05:15.771Z,44.00
2018-04-23T00:06:15.694Z,47.40
2018-04-23T00:08:08.970Z,41.10
2018-04-23T00:09:08.907Z,43.20
2018-04-23T00:11:02.312Z,47.50
2018-04-23T00:12:02.126Z,45.90
2018-04-23T00:13:55.401Z,46.50
2018-04-23T00:14:55.341Z,47.50
2018-04-23T00:16:48.741Z,41.20
2018-04-23T00:17:48.559Z,47.30
2018-04-23T00:19:41.835Z,45.10
2018-04-23T00:20:41.774Z,50.50
2018-04-23T00:22:35.175Z,42.00
2018-04-23T00:23:34.990Z,46.00
2018-04-23T00:25:28.291Z,50.40
2018-04-23T00:26:28.208Z,44.50
2018-04-23T00:28:21.487Z,42.80
2018-04-23T00:29:21.425Z,41.50
2018-04-23T00:31:14.725Z,42.90
2018-04-23T00:32:14.641Z,35.20
2018-04-23T00:34:07.918Z,30.30
2018-04-23T00:35:07.857Z,31.00
2018-04-23T00:37:01.147Z,32.50
2018-04-23T00:38:01.066Z,32.10
2018-04-23T00:39:54.342Z,30.30
2018-04-23T00:40:54.279Z,29.40
2018-04-23T00:42:47.680Z,28.70
2018-04-23T00:43:47.496Z,32.30
2018-04-23T00:45:40.793Z,34.80
2018-04-23T00:46:40.713Z,39.10
2018-04-23T00:48:33.991Z,32.10
2018-04-23T00:49:33.928Z,32.50
2018-04-23T00:51:27.330Z,38.20
2018-04-23T00:52:27.145Z,39.00
2018-04-23T00:54:20.419Z,40.40
2018-04-23T00:55:20.359Z,36.90
2018-04-23T00:57:13.645Z,37.70
2018-04-23T00:58:13.555Z,39.20
2018-04-23T01:00:06.844Z,36.60
2018-04-23T01:01:06.788Z,40.20
2018-04-23T01:03:00.179Z,45.80
2018-04-23T01:03:59.994Z,48.80
2018-04-23T01:05:53.339Z,48.70
2018-04-23T01:06:53.262Z,46.70
2018-04-23T01:08:46.534Z,45.60
2018-04-23T01:09:46.470Z,46.60
2018-04-23T01:11:39.765Z,47.20
2018-04-23T01:12:39.683Z,46.90
2018-04-23T01:14:33.068Z,45.90
2018-04-23T01:15:32.939Z,48.30
2018-04-23T01:17:26.235Z,50.50
2018-04-23T01:18:26.154Z,53.50
2018-04-23T01:20:19.449Z,55.60
2018-04-23T01:21:19.369Z,59.00
2018-04-23T01:23:12.664Z,57.50
2018-04-23T01:24:12.589Z,54.80
2018-04-23T01:26:05.987Z,55.20
2018-04-23T01:27:05.798Z,53.00
2018-04-23T01:28:59.074Z,54.80
2018-04-23T01:29:59.012Z,51.40
2018-04-23T01:31:52.416Z,55.80
2018-04-23T01:32:52.229Z,58.60
2018-04-23T01:34:45.537Z,63.40
2018-04-23T01:35:45.481Z,54.90
2018-04-23T01:37:38.769Z,57.20
2018-04-23T01:38:38.689Z,58.40
2018-04-23T01:40:32.091Z,56.40
2018-04-23T01:41:31.914Z,64.10
2018-04-23T01:43:25.208Z,58.70
2018-04-23T01:44:25.150Z,57.30
2018-04-23T01:46:18.528Z,59.40
2018-04-23T01:47:18.342Z,56.20
2018-04-23T01:49:11.618Z,67.90
2018-04-23T01:50:11.558Z,65.70
2018-04-23T01:52:04.853Z,63.90
2018-04-23T01:53:04.772Z,64.10
2018-04-23T01:54:58.047Z,64.80
2018-04-23T01:55:57.984Z,64.00
2018-04-23T01:57:51.342Z,71.90
2018-04-23T01:58:51.257Z,65.10
2018-04-23T02:00:44.677Z,56.40
2018-04-23T02:01:44.471Z,65.40
2018-04-23T02:03:37.751Z,67.10
2018-04-23T02:04:37.686Z,68.30
2018-04-23T02:06:30.989Z,60.40
2018-04-23T02:07:30.909Z,62.90
2018-04-23T02:09:24.185Z,58.50
2018-04-23T02:10:24.124Z,60.50
2018-04-23T02:12:17.422Z,60.70
2018-04-23T02:13:17.340Z,59.10
2018-04-23T02:15:10.617Z,67.50
2018-04-23T02:16:10.570Z,64.30
2018-04-23T02:18:03.856Z,60.30
2018-04-23T02:19:03.775Z,65.30
2018-04-23T02:20:57.083Z,61.00
2018-04-23T02:21:56.989Z,64.40
2018-04-23T02:23:50.373Z,55.50
2018-04-23T02:24:50.209Z,56.20
2018-04-23T02:26:43.504Z,60.70
2018-04-23T02:27:43.420Z,63.90
2018-04-23T02:29:36.697Z,59.80
2018-04-23T02:30:36.639Z,60.70
2018-04-23T02:32:29.933Z,61.80
2018-04-23T02:33:29.852Z,62.10
2018-04-23T02:35:23.126Z,65.50
2018-04-23T02:36:23.066Z,67.50
2018-04-23T02:38:16.361Z,68.70
2018-04-23T02:39:16.281Z,66.00
2018-04-23T02:41:09.576Z,62.20
2018-04-23T02:42:09.496Z,67.30
2018-04-23T02:44:02.773Z,73.70
2018-04-23T02:45:02.761Z,72.30
2018-04-23T02:46:56.003Z,67.90
2018-04-23T02:47:55.921Z,67.80
2018-04-23T02:49:49.197Z,68.90
2018-04-23T02:50:49.129Z,69.30
2018-04-23T02:52:42.427Z,68.10
2018-04-23T02:53:42.345Z,67.50
2018-04-23T02:55:35.632Z,65.50
2018-04-23T02:56:35.568Z,66.70
2018-04-23T02:58:28.864Z,75.60
2018-04-23T02:59:28.782Z,69.80
2018-04-23T03:01:22.182Z,73.70
2018-04-23T03:02:21.997Z,73.80
2018-04-23T03:04:15.320Z,76.90
2018-04-23T03:05:15.261Z,72.90
2018-04-23T03:07:08.546Z,82.70
2018-04-23T03:08:08.464Z,72.90
2018-04-23T03:10:01.753Z,72.20
2018-04-23T03:11:01.689Z,78.50
2018-04-23T03:12:54.981Z,74.80
2018-04-23T03:13:54.904Z,81.30
2018-04-23T03:15:48.176Z,85.50
2018-04-23T03:16:48.115Z,82.30
2018-04-23T03:18:41.410Z,79.00
2018-04-23T03:19:41.331Z,79.70
2018-04-23T03:21:34.626Z,78.60
2018-04-23T03:22:34.548Z,73.80
2018-04-23T03:24:27.820Z,72.70
2018-04-23T03:25:27.758Z,79.50
2018-04-23T03:27:21.056Z,76.30
2018-04-23T03:28:20.972Z,76.30
2018-04-23T03:30:14.355Z,78.10
2018-04-23T03:31:14.187Z,77.40
2018-04-23T03:33:07.485Z,77.50
2018-04-23T03:34:07.404Z,80.70
2018-04-23T03:36:00.679Z,80.80
2018-04-23T03:37:00.615Z,77.20
2018-04-23T03:38:53.912Z,79.90
2018-04-23T03:39:53.830Z,73.80
2018-04-23T03:41:47.125Z,73.30
2018-04-23T03:42:47.053Z,69.20
2018-04-23T03:44:40.320Z,61.70
2018-04-23T03:45:40.257Z,61.20
2018-04-23T03:47:33.556Z,60.50
2018-04-23T03:48:33.479Z,57.60
2018-04-23T03:50:26.878Z,53.40
2018-04-23T03:51:26.688Z,54.00
2018-04-23T03:53:19.984Z,50.70
2018-04-23T03:54:19.901Z,47.80
2018-04-23T03:56:13.282Z,45.40
2018-04-23T03:57:13.113Z,46.80
2018-04-23T03:59:06.408Z,49.00
2018-04-23T04:00:06.326Z,47.50
2018-04-23T04:01:59.623Z,43.40
2018-04-23T04:02:59.539Z,41.00
2018-04-23T04:04:52.814Z,52.10
2018-04-23T04:05:52.754Z,49.90
2018-04-23T04:07:46.157Z,44.00
2018-04-23T04:08:45.957Z,42.80
2018-04-23T04:10:39.339Z,45.30
2018-04-23T04:11:39.172Z,46.00
2018-04-23T04:13:32.466Z,45.10
2018-04-23T04:14:32.383Z,43.70
2018-04-23T04:16:25.661Z,47.40
2018-04-23T04:17:25.599Z,47.50
2018-04-23T04:19:18.892Z,53.10
2018-04-23T04:20:18.807Z,53.50
2018-04-23T04:22:12.105Z,45.30
2018-04-23T04:23:12.024Z,49.90
2018-04-23T04:25:05.320Z,51.80
2018-04-23T04:26:05.255Z,51.10
2018-04-23T04:27:58.611Z,58.20
2018-04-23T04:28:58.540Z,61.00
2018-04-23T04:30:52.410Z,52.70
2018-04-23T04:31:51.742Z,50.00
2018-04-23T04:33:45.037Z,50.50
2018-04-23T04:34:44.955Z,51.10
2018-04-23T04:36:38.239Z,50.50
2018-04-23T04:37:38.163Z,50.60
2018-04-23T04:39:31.470Z,49.50
2018-04-23T04:40:31.386Z,51.70
2018-04-23T04:42:24.684Z,51.60
2018-04-23T04:43:24.599Z,44.20
2018-04-23T04:45:17.982Z,43.10
2018-04-23T04:46:17.814Z,50.10
2018-04-23T04:48:11.213Z,45.60
2018-04-23T04:49:11.028Z,38.30
2018-04-23T04:51:04.409Z,38.90
2018-04-23T04:52:04.240Z,40.50
2018-04-23T04:53:57.535Z,38.40
2018-04-23T04:54:57.453Z,38.40
2018-04-23T04:56:50.835Z,41.00
2018-04-23T04:57:50.658Z,34.10
2018-04-23T04:59:43.962Z,36.40
2018-04-23T05:00:43.872Z,33.00
2018-04-23T05:02:37.169Z,41.40
2018-04-23T05:03:37.085Z,39.60
2018-04-23T05:05:30.363Z,40.50
2018-04-23T05:06:30.310Z,35.00
2018-04-23T05:08:23.590Z,34.00
2018-04-23T05:09:23.505Z,37.80
2018-04-23T05:11:16.777Z,36.30
2018-04-23T05:12:16.707Z,35.10
2018-04-23T05:14:09.996Z,33.40
2018-04-23T05:15:09.912Z,36.20
2018-04-23T05:17:03.180Z,40.70
2018-04-23T05:18:03.117Z,35.00
2018-04-23T05:19:56.412Z,42.70
2018-04-23T05:20:56.330Z,35.00
2018-04-23T05:22:49.626Z,32.60
2018-04-23T05:23:49.558Z,36.40
2018-04-23T05:25:42.925Z,34.20
2018-04-23T05:26:42.751Z,38.40
2018-04-23T05:28:36.045Z,31.10
2018-04-23T05:29:35.963Z,30.50
2018-04-23T05:31:29.843Z,29.30
2018-04-23T05:32:29.258Z,28.00
2018-04-23T05:34:22.553Z,30.30
2018-04-23T05:35:22.471Z,32.80
2018-04-23T05:37:15.752Z,27.00
2018-04-23T05:38:15.681Z,35.80
2018-04-23T05:40:08.965Z,31.00
2018-04-23T05:41:08.885Z,28.80
2018-04-23T05:43:02.186Z,32.30
2018-04-23T05:44:02.105Z,30.30
2018-04-23T05:45:55.374Z,31.00
2018-04-23T05:46:55.312Z,33.40
2018-04-23T05:48:48.609Z,26.30
2018-04-23T05:49:48.526Z,26.80
2018-04-23T05:51:41.802Z,24.00
2018-04-23T05:52:41.741Z,26.60
2018-04-23T05:54:35.145Z,27.30
2018-04-23T05:55:34.955Z,23.20
2018-04-23T05:57:28.225Z,26.20
2018-04-23T05:58:28.162Z,23.50
2018-04-23T06:00:21.563Z,30.60
2018-04-23T06:01:21.378Z,30.30
2018-04-23T06:03:14.673Z,23.90
2018-04-23T06:04:14.593Z,24.10
2018-04-23T06:06:07.859Z,25.50
2018-04-23T06:07:07.796Z,26.00
2018-04-23T06:09:01.095Z,22.60
2018-04-23T06:10:01.013Z,24.00
2018-04-23T06:11:54.279Z,22.00
2018-04-23T06:12:54.217Z,26.70
2018-04-23T06:14:47.507Z,24.40
2018-04-23T06:15:47.435Z,24.30
2018-04-23T06:17:40.713Z,23.10
2018-04-23T06:18:40.650Z,21.20
2018-04-23T06:20:33.953Z,26.80
2018-04-23T06:21:33.867Z,24.10
2018-04-23T06:23:27.157Z,21.00
2018-04-23T06:24:27.072Z,21.60
2018-04-23T06:26:20.342Z,21.80
2018-04-23T06:27:20.278Z,19.70
2018-04-23T06:29:13.565Z,26.20
2018-04-23T06:30:13.486Z,25.80
2018-04-23T06:32:06.865Z,19.50
2018-04-23T06:33:06.691Z,21.80
2018-04-23T06:34:59.974Z,20.50
2018-04-23T06:35:59.900Z,19.20
2018-04-23T06:37:53.275Z,18.20
2018-04-23T06:38:53.100Z,20.80
2018-04-23T06:40:46.398Z,19.70
2018-04-23T06:41:46.318Z,19.70
2018-04-23T06:43:39.595Z,22.20
2018-04-23T06:44:39.522Z,18.00
2018-04-23T06:46:32.903Z,20.00
2018-04-23T06:47:32.727Z,21.00
2018-04-23T06:49:26.020Z,21.60
2018-04-23T06:50:25.950Z,19.50
2018-04-23T06:52:19.320Z,16.70
2018-04-23T06:53:19.143Z,17.60
2018-04-23T06:55:12.435Z,18.30
2018-04-23T06:56:12.351Z,18.70
2018-04-23T06:58:05.653Z,17.10
2018-04-23T06:59:05.587Z,18.00
2018-04-23T07:00:58.846Z,19.80
2018-04-23T07:01:58.765Z,17.80
2018-04-23T07:03:52.085Z,20.30
2018-04-23T07:04:52.063Z,20.50
2018-04-23T07:06:45.324Z,16.30
2018-04-23T07:07:45.257Z,19.30
2018-04-23T07:09:38.654Z,18.70
2018-04-23T07:10:38.462Z,19.10
2018-04-23T07:12:31.844Z,19.30
2018-04-23T07:13:31.683Z,21.10
2018-04-23T07:15:25.068Z,19.50
2018-04-23T07:16:24.873Z,18.60
2018-04-23T07:18:18.150Z,21.70
2018-04-23T07:19:18.088Z,16.90
2018-04-23T07:21:11.375Z,18.10
2018-04-23T07:22:11.294Z,19.60
2018-04-23T07:24:04.596Z,18.40
2018-04-23T07:25:04.543Z,15.60
2018-04-23T07:26:58.622Z,16.80
2018-04-23T07:27:58.561Z,13.90
2018-04-23T07:29:51.850Z,19.90
2018-04-23T07:30:51.764Z,16.40
2018-04-23T07:32:45.651Z,16.20
2018-04-23T07:33:44.981Z,15.40
2018-04-23T07:35:38.267Z,19.90
2018-04-23T07:36:38.184Z,15.60
2018-04-23T07:38:31.454Z,19.80
2018-04-23T07:39:31.394Z,20.20
2018-04-23T07:41:24.683Z,16.50
2018-04-23T07:42:24.604Z,17.10
2018-04-23T07:44:17.892Z,19.70
2018-04-23T07:45:17.814Z,20.00
2018-04-23T07:47:11.088Z,20.50
2018-04-23T07:48:11.026Z,17.40
2018-04-23T07:50:04.319Z,18.30
2018-04-23T07:51:04.240Z,19.60
2018-04-23T07:52:57.513Z,15.10
2018-04-23T07:53:57.455Z,15.70
2018-04-23T07:55:50.746Z,13.70
2018-04-23T07:56:50.666Z,17.50
2018-04-23T07:58:44.052Z,21.80
2018-04-23T07:59:43.881Z,16.70
2018-04-23T08:01:37.286Z,14.60
2018-04-23T08:02:37.094Z,15.10
2018-04-23T08:04:30.386Z,17.90
2018-04-23T08:05:30.308Z,16.00
2018-04-23T08:07:23.696Z,13.50
2018-04-23T08:08:23.530Z,12.90
2018-04-23T08:10:16.821Z,16.90
2018-04-23T08:11:16.742Z,14.40
2018-04-23T08:13:10.021Z,17.50
2018-04-23T08:14:09.960Z,11.90
2018-04-23T08:16:03.256Z,14.00
2018-04-23T08:17:03.177Z,13.70
2018-04-23T08:18:56.451Z,16.60
2018-04-23T08:19:56.393Z,14.30
2018-04-23T08:21:49.688Z,13.70
2018-04-23T08:22:49.611Z,18.20
2018-04-23T08:24:42.906Z,12.90
2018-04-23T08:25:42.829Z,15.30
2018-04-23T08:27:36.108Z,12.60
2018-04-23T08:28:36.055Z,10.80
2018-04-23T08:30:29.460Z,12.10
2018-04-23T08:31:29.271Z,10.80
2018-04-23T08:33:22.664Z,13.50
2018-04-23T08:34:22.501Z,11.50
2018-04-23T08:36:15.794Z,12.90
2018-04-23T08:37:15.722Z,12.10
2018-04-23T08:39:09.012Z,10.80
2018-04-23T08:40:08.942Z,11.70
2018-04-23T08:42:02.250Z,12.20
2018-04-23T08:43:02.176Z,13.20
2018-04-23T08:44:55.488Z,9.90
2018-04-23T08:45:55.413Z,11.00
2018-04-23T08:47:48.803Z,12.20
2018-04-23T08:48:48.636Z,11.30
2018-04-23T08:50:42.042Z,12.40
2018-04-23T08:51:41.855Z,13.50
2018-04-23T08:53:35.248Z,13.10
2018-04-23T08:54:35.076Z,11.10
2018-04-23T08:56:28.445Z,12.80
2018-04-23T08:57:28.369Z,14.90
2018-04-23T08:59:21.758Z,10.40
2018-04-23T09:00:21.593Z,10.50
2018-04-23T09:02:14.891Z,12.60
2018-04-23T09:03:14.815Z,10.60
2018-04-23T09:05:08.226Z,10.70
2018-04-23T09:06:08.041Z,9.40
2018-04-23T09:08:01.320Z,8.80
2018-04-23T09:09:01.267Z,8.20
2018-04-23T09:10:54.564Z,9.90
2018-04-23T09:11:54.490Z,9.30
2018-04-23T09:13:47.770Z,10.80
2018-04-23T09:14:47.716Z,9.90
2018-04-23T09:16:41.130Z,10.00
2018-04-23T09:17:40.945Z,11.20
2018-04-23T09:19:34.335Z,8.20
2018-04-23T09:20:34.180Z,9.60
2018-04-23T09:22:27.480Z,10.10
2018-04-23T09:23:27.406Z,11.40
2018-04-23T09:25:20.707Z,9.00
2018-04-23T09:26:20.635Z,9.20
2018-04-23T09:28:13.929Z,10.80
2018-04-23T09:29:13.867Z,10.70
2018-04-23T09:31:07.169Z,12.30
2018-04-23T09:32:07.091Z,10.60
2018-04-23T09:34:00.981Z,11.20
2018-04-23T09:35:00.376Z,11.20
2018-04-23T09:36:53.674Z,9.00
2018-04-23T09:37:53.600Z,9.50
2018-04-23T09:39:46.879Z,9.70
2018-04-23T09:40:46.821Z,9.80
2018-04-23T09:42:40.229Z,8.70
2018-04-23T09:43:40.044Z,9.80
2018-04-23T09:45:33.342Z,10.80
2018-04-23T09:46:33.265Z,8.80
2018-04-23T09:48:26.692Z,12.50
2018-04-23T09:49:26.488Z,10.10
2018-04-23T09:51:19.789Z,8.10
2018-04-23T09:52:19.711Z,8.20
2018-04-23T09:54:12.989Z,8.80
2018-04-23T09:55:12.933Z,9.90
2018-04-23T09:57:06.229Z,8.10
2018-04-23T09:58:06.155Z,8.40
2018-04-23T09:59:59.435Z,8.90
2018-04-23T10:00:59.379Z,10.90
2018-04-23T10:02:52.788Z,10.10
2018-04-23T10:03:52.604Z,10.50
2018-04-23T10:05:46.014Z,11.60
2018-04-23T10:06:45.838Z,9.80
2018-04-23T10:08:39.116Z,12.20
2018-04-23T10:09:39.062Z,9.40
2018-04-23T10:11:32.444Z,6.30
2018-04-23T10:12:32.372Z,8.40
2018-04-23T10:14:25.661Z,7.40
2018-04-23T10:15:25.603Z,8.60
2018-04-23T10:17:18.910Z,8.70
2018-04-23T10:18:18.837Z,7.60
2018-04-23T10:20:12.123Z,8.40
2018-04-23T10:21:12.071Z,8.20
2018-04-23T10:23:05.374Z,7.60
2018-04-23T10:24:05.304Z,8.50
2018-04-23T10:25:58.605Z,8.70
2018-04-23T10:26:58.535Z,7.40
2018-04-23T10:28:51.923Z,9.00
2018-04-23T10:29:51.760Z,8.70
2018-04-23T10:31:45.062Z,9.20
2018-04-23T10:32:44.993Z,11.80
2018-04-23T10:34:38.880Z,9.80
2018-04-23T10:35:38.372Z,10.60
2018-04-23T10:37:31.675Z,9.50
2018-04-23T10:38:31.604Z,9.90
2018-04-23T10:40:24.994Z,9.80
2018-04-23T10:41:24.831Z,9.00
2018-04-23T10:43:18.144Z,9.40
2018-04-23T10:44:18.061Z,11.10
2018-04-23T10:46:11.357Z,10.60
2018-04-23T10:47:11.280Z,7.10
2018-04-23T10:49:04.560Z,9.80
2018-04-23T10:50:04.508Z,8.70
2018-04-23T10:51:58.922Z,9.70
2018-04-23T10:52:58.589Z,6.90
2018-04-23T10:54:51.859Z,6.10
2018-04-23T10:55:51.806Z,7.60
2018-04-23T10:57:45.216Z,8.50
2018-04-23T10:58:45.035Z,7.70
2018-04-23T11:00:38.427Z,8.80
2018-04-23T11:01:38.375Z,8.40
2018-04-23T11:03:31.782Z,8.10
2018-04-23T11:04:31.601Z,7.90
2018-04-23T11:06:24.901Z,8.60
2018-04-23T11:07:24.831Z,8.40
2018-04-23T11:09:18.111Z,9.40
2018-04-23T11:10:18.056Z,8.80
2018-04-23T11:12:11.360Z,8.60
2018-04-23T11:13:11.282Z,10.90
2018-04-23T11:15:04.563Z,8.80
2018-04-23T11:16:04.509Z,8.30
2018-04-23T11:17:58.654Z,8.90
2018-04-23T11:18:58.579Z,8.90
2018-04-23T11:20:51.857Z,7.80
2018-04-23T11:21:51.801Z,8.90
2018-04-23T11:23:45.104Z,8.00
2018-04-23T11:24:45.076Z,10.30
2018-04-23T11:26:37.926Z,8.40
2018-04-23T11:27:37.774Z,7.60
2018-04-23T11:29:31.050Z,8.80
2018-04-23T11:30:30.992Z,8.10
2018-04-23T11:32:24.484Z,6.40
2018-04-23T11:33:24.367Z,8.10
2018-04-23T11:35:17.754Z,8.20
2018-04-23T11:36:17.590Z,7.60
2018-04-23T11:38:10.880Z,7.30
2018-04-23T11:39:10.803Z,10.70
2018-04-23T11:41:04.080Z,6.60
2018-04-23T11:42:04.014Z,6.70
2018-04-23T11:43:57.344Z,9.20
2018-04-23T11:44:57.246Z,8.60
2018-04-23T11:46:50.652Z,7.30
2018-04-23T11:47:50.464Z,6.90
2018-04-23T11:49:43.739Z,7.60
2018-04-23T11:50:43.682Z,11.00
2018-04-23T11:52:37.110Z,7.70
2018-04-23T11:53:36.897Z,7.70
2018-04-23T11:55:30.178Z,8.90
2018-04-23T11:56:30.113Z,7.30
2018-04-23T11:58:23.408Z,9.10
2018-04-23T11:59:23.332Z,7.10
2018-04-23T12:01:16.620Z,7.00
2018-04-23T12:02:16.561Z,7.20
2018-04-23T12:04:09.855Z,7.90
2018-04-23T12:05:09.775Z,8.80
2018-04-23T12:07:03.073Z,9.40
2018-04-23T12:08:02.994Z,6.80
2018-04-23T12:09:56.323Z,8.50
2018-04-23T12:10:56.264Z,9.20
2018-04-23T12:12:49.562Z,11.00
2018-04-23T12:13:49.483Z,8.00
2018-04-23T12:15:42.758Z,8.30
2018-04-23T12:16:42.697Z,7.60
2018-04-23T12:18:36.106Z,6.90
2018-04-23T12:19:35.913Z,10.80
2018-04-23T12:21:29.189Z,8.00
2018-04-23T12:22:29.188Z,7.90
2018-04-23T12:24:22.430Z,8.70
2018-04-23T12:25:22.351Z,9.50
2018-04-23T12:27:15.648Z,10.30
2018-04-23T12:28:15.573Z,8.00
2018-04-23T12:30:08.882Z,10.90
2018-04-23T12:31:08.842Z,7.40
2018-04-23T12:33:02.099Z,7.50
2018-04-23T12:34:02.020Z,7.20
2018-04-23T12:35:55.297Z,10.20
2018-04-23T12:36:55.239Z,8.00
2018-04-23T12:38:48.642Z,7.70
2018-04-23T12:39:48.522Z,8.50
2018-04-23T12:41:41.733Z,7.80
2018-04-23T12:42:41.676Z,7.80
2018-04-23T12:44:34.974Z,6.80
2018-04-23T12:45:34.897Z,7.80
2018-04-23T12:47:28.295Z,7.40
2018-04-23T12:48:28.162Z,7.60
2018-04-23T12:50:21.503Z,7.90
2018-04-23T12:51:21.334Z,10.80
2018-04-23T12:53:14.650Z,8.30
2018-04-23T12:54:14.573Z,9.80
2018-04-23T12:56:07.897Z,10.50
2018-04-23T12:57:07.808Z,9.70
2018-04-23T12:59:01.084Z,8.70
2018-04-23T13:00:01.007Z,8.40
2018-04-23T13:01:54.323Z,8.80
2018-04-23T13:02:54.265Z,9.90
2018-04-23T13:04:47.559Z,7.20
2018-04-23T13:05:47.512Z,10.20
2018-04-23T13:07:40.785Z,8.00
2018-04-23T13:08:40.708Z,10.70
2018-04-23T13:10:33.986Z,10.40
2018-04-23T13:11:33.923Z,9.80
2018-04-23T13:13:27.280Z,9.60
2018-04-23T13:14:27.140Z,8.90
2018-04-23T13:16:20.414Z,9.90
2018-04-23T13:17:20.357Z,12.40
2018-04-23T13:19:13.650Z,8.30
2018-04-23T13:20:13.571Z,10.40
2018-04-23T13:22:06.846Z,9.60
2018-04-23T13:23:06.790Z,7.20
2018-04-23T13:25:00.086Z,9.50
2018-04-23T13:26:00.006Z,11.50
2018-04-23T13:27:53.298Z,8.80
2018-04-23T13:28:53.220Z,9.40
2018-04-23T13:30:46.499Z,10.20
2018-04-23T13:31:46.437Z,8.70
2018-04-23T13:33:39.739Z,8.80
2018-04-23T13:34:39.662Z,8.80
2018-04-23T13:36:32.937Z,9.90
2018-04-23T13:37:32.878Z,8.40
2018-04-23T13:39:26.181Z,7.50
2018-04-23T13:40:26.101Z,6.90
2018-04-23T13:42:19.487Z,8.00
2018-04-23T13:43:19.318Z,9.00
2018-04-23T13:45:13.723Z,9.30
2018-04-23T13:46:13.532Z,10.10
2018-04-23T13:48:06.845Z,12.50
2018-04-23T13:49:06.749Z,12.10
2018-04-23T13:51:00.023Z,9.60
2018-04-23T13:51:59.966Z,9.30
2018-04-23T13:53:53.262Z,14.20
2018-04-23T13:54:53.185Z,13.80
2018-04-23T13:56:46.452Z,10.00
2018-04-23T13:57:46.403Z,10.40
2018-04-23T13:59:39.692Z,9.10
2018-04-23T14:00:39.615Z,7.80
2018-04-23T14:02:32.892Z,10.00
2018-04-23T14:03:32.834Z,8.90
2018-04-23T14:05:26.240Z,8.10
2018-04-23T14:06:26.051Z,7.20
2018-04-23T14:08:20.326Z,9.60
2018-04-23T14:09:20.266Z,9.30
2018-04-23T14:11:13.558Z,11.10
2018-04-23T14:12:13.479Z,10.10
2018-04-23T14:14:06.782Z,7.80
2018-04-23T14:15:06.705Z,7.50
2018-04-23T14:17:00.091Z,8.40
2018-04-23T14:17:59.943Z,8.70
2018-04-23T14:19:53.234Z,9.70
2018-04-23T14:20:53.154Z,9.60
2018-04-23T14:22:46.542Z,6.40
2018-04-23T14:23:46.388Z,10.20
2018-04-23T14:25:39.695Z,6.40
2018-04-23T14:26:39.601Z,7.60
2018-04-23T14:28:32.885Z,7.90
2018-04-23T14:29:32.827Z,7.60
2018-04-23T14:31:26.231Z,6.40
2018-04-23T14:32:26.058Z,7.50
2018-04-23T14:34:19.458Z,6.40
2018-04-23T14:35:19.280Z,6.40
2018-04-23T14:37:12.567Z,8.70
2018-04-23T14:38:12.506Z,7.00
2018-04-23T14:40:05.809Z,6.60
2018-04-23T14:41:05.731Z,7.50
2018-04-23T14:42:59.016Z,9.60
2018-04-23T14:43:58.960Z,6.90
2018-04-23T14:45:52.365Z,10.30
2018-04-23T14:46:52.265Z,8.10
2018-04-23T14:48:45.550Z,7.10
2018-04-23T14:49:45.493Z,6.00
2018-04-23T14:51:38.896Z,7.90
2018-04-23T14:52:38.714Z,7.10
2018-04-23T14:54:32.005Z,5.50
2018-04-23T14:55:31.947Z,7.00
2018-04-23T14:57:25.241Z,7.30
2018-04-23T14:58:25.162Z,6.60
2018-04-23T15:00:18.471Z,4.70
2018-04-23T15:01:18.387Z,5.70
2018-04-23T15:03:11.676Z,8.30
2018-04-23T15:04:11.612Z,6.70
2018-04-23T15:06:04.917Z,5.50
2018-04-23T15:07:04.837Z,6.80
2018-04-23T15:08:58.124Z,7.10
2018-04-23T15:09:58.076Z,6.70
2018-04-23T15:11:51.366Z,5.80
2018-04-23T15:12:51.287Z,5.20
2018-04-23T15:14:44.574Z,7.00
2018-04-23T15:15:44.513Z,7.00
2018-04-23T15:17:37.837Z,7.90
2018-04-23T15:18:37.758Z,8.00
2018-04-23T15:20:31.038Z,6.00
2018-04-23T15:21:30.980Z,6.90
2018-04-23T15:23:24.345Z,7.00
2018-04-23T15:24:24.263Z,4.80
2018-04-23T15:26:17.567Z,7.60
2018-04-23T15:27:17.484Z,4.60
2018-04-23T15:29:10.766Z,6.00
2018-04-23T15:30:10.706Z,8.00
2018-04-23T15:32:04.007Z,5.50
2018-04-23T15:33:03.927Z,7.10
2018-04-23T15:34:57.313Z,5.20
2018-04-23T15:35:57.173Z,5.80
2018-04-23T15:37:50.435Z,7.70
2018-04-23T15:38:50.351Z,6.40
2018-04-23T15:40:43.738Z,7.40
2018-04-23T15:41:43.578Z,4.90
2018-04-23T15:43:36.980Z,4.10
2018-04-23T15:44:36.790Z,4.70
2018-04-23T15:46:30.197Z,7.60
2018-04-23T15:47:30.004Z,5.40
2018-04-23T15:49:23.271Z,4.90
2018-04-23T15:50:23.211Z,5.70
2018-04-23T15:52:16.501Z,3.90
2018-04-23T15:53:16.422Z,6.10
2018-04-23T15:55:09.705Z,7.00
2018-04-23T15:56:09.644Z,6.20
2018-04-23T15:58:02.942Z,5.00
2018-04-23T15:59:02.863Z,5.00
2018-04-23T16:00:56.144Z,7.50
2018-04-23T16:01:56.084Z,6.10
2018-04-23T16:03:49.384Z,5.80
2018-04-23T16:04:49.307Z,4.60
2018-04-23T16:06:42.584Z,5.60
2018-04-23T16:07:42.524Z,4.40
2018-04-23T16:09:35.825Z,6.50
2018-04-23T16:10:35.745Z,6.00
2018-04-23T16:12:29.045Z,5.00
2018-04-23T16:13:28.967Z,4.90
2018-04-23T16:15:22.352Z,5.30
2018-04-23T16:16:22.263Z,4.70
2018-04-23T16:18:15.562Z,5.30
2018-04-23T16:19:15.483Z,7.20
2018-04-23T16:21:08.765Z,8.80
2018-04-23T16:22:08.705Z,5.70
2018-04-23T16:24:02.007Z,7.00
2018-04-23T16:25:01.925Z,6.50
2018-04-23T16:26:55.198Z,6.30
2018-04-23T16:27:55.138Z,4.60
2018-04-23T16:29:48.440Z,5.80
2018-04-23T16:30:48.362Z,6.60
2018-04-23T16:32:41.642Z,5.90
2018-04-23T16:33:41.582Z,4.60
2018-04-23T16:35:34.883Z,10.10
2018-04-23T16:36:34.804Z,9.80
2018-04-23T16:38:28.954Z,6.20
2018-04-23T16:39:28.874Z,6.60
2018-04-23T16:41:22.154Z,5.60
2018-04-23T16:42:22.095Z,5.40
2018-04-23T16:44:15.394Z,6.20
2018-04-23T16:45:15.317Z,6.70
2018-04-23T16:47:08.596Z,6.00
2018-04-23T16:48:08.536Z,5.40
2018-04-23T16:50:01.836Z,8.20
2018-04-23T16:51:01.756Z,5.60
2018-04-23T16:52:55.036Z,5.80
2018-04-23T16:53:54.975Z,5.40
2018-04-23T16:55:48.341Z,6.20
2018-04-23T16:56:48.262Z,7.30
2018-04-23T16:58:41.560Z,5.50
2018-04-23T16:59:41.484Z,4.70
2018-04-23T17:01:34.776Z,6.90
2018-04-23T17:02:34.711Z,4.90
2018-04-23T17:04:28.857Z,8.60
2018-04-23T17:05:28.777Z,6.90
2018-04-23T17:07:22.049Z,5.20
2018-04-23T17:08:21.987Z,5.40
2018-04-23T17:10:15.287Z,6.10
2018-04-23T17:11:15.206Z,6.20
2018-04-23T17:13:08.486Z,4.20
2018-04-23T17:14:08.433Z,5.80
2018-04-23T17:16:01.732Z,4.70
2018-04-23T17:17:01.643Z,4.60
2018-04-23T17:18:55.026Z,4.00
2018-04-23T17:19:54.862Z,4.50
2018-04-23T17:21:48.160Z,4.50
2018-04-23T17:22:48.081Z,5.50
2018-04-23T17:24:41.388Z,4.90
2018-04-23T17:25:41.308Z,4.20
2018-04-23T17:27:34.589Z,6.50
2018-04-23T17:28:34.527Z,6.10
2018-04-23T17:30:27.825Z,5.30
2018-04-23T17:31:27.746Z,5.90
2018-04-23T17:33:21.025Z,3.70
2018-04-23T17:34:20.962Z,4.70
2018-04-23T17:36:14.370Z,6.80
2018-04-23T17:37:14.262Z,5.10
2018-04-23T17:39:07.538Z,4.10
2018-04-23T17:40:07.475Z,5.00
2018-04-23T17:42:00.773Z,5.00
2018-04-23T17:43:00.693Z,5.30
2018-04-23T17:44:53.994Z,6.30
2018-04-23T17:45:53.914Z,6.70
2018-04-23T17:47:47.199Z,6.80
2018-04-23T17:48:47.119Z,7.70
2018-04-23T17:50:40.417Z,5.40
2018-04-23T17:51:40.340Z,6.90
2018-04-23T17:53:33.614Z,6.10
2018-04-23T17:54:33.552Z,5.20
2018-04-23T17:56:26.852Z,5.40
2018-04-23T17:57:26.772Z,5.30
2018-04-23T17:59:20.046Z,5.70
2018-04-23T18:00:19.982Z,4.30
2018-04-23T18:02:13.285Z,5.00
2018-04-23T18:03:13.198Z,7.00
2018-04-23T18:05:06.476Z,6.30
2018-04-23T18:06:06.416Z,4.50
2018-04-23T18:07:59.709Z,5.50
2018-04-23T18:08:59.627Z,4.80
2018-04-23T18:10:52.925Z,5.20
2018-04-23T18:11:52.845Z,5.50
2018-04-23T18:13:46.120Z,7.40
2018-04-23T18:14:46.057Z,7.70
2018-04-23T18:16:39.355Z,6.80
2018-04-23T18:17:39.322Z,6.50
2018-04-23T18:19:32.548Z,6.70
2018-04-23T18:20:32.485Z,5.50
2018-04-23T18:22:25.781Z,5.50
2018-04-23T18:23:25.701Z,7.40
2018-04-23T18:25:19.081Z,3.20
2018-04-23T18:26:18.914Z,3.90
2018-04-23T18:28:12.209Z,4.80
2018-04-23T18:29:12.128Z,3.70
2018-04-23T18:31:05.429Z,5.60
2018-04-23T18:32:05.342Z,5.80
2018-04-23T18:33:58.618Z,4.00
2018-04-23T18:34:58.556Z,4.80
2018-04-23T18:36:51.844Z,5.10
2018-04-23T18:37:51.760Z,4.20
2018-04-23T18:39:45.055Z,5.40
2018-04-23T18:40:44.974Z,3.70
2018-04-23T18:42:38.343Z,3.30
2018-04-23T18:43:38.262Z,5.20
2018-04-23T18:45:31.537Z,6.40
2018-04-23T18:46:31.477Z,7.10
2018-04-23T18:48:24.875Z,3.90
2018-04-23T18:49:24.687Z,5.20
2018-04-23T18:51:17.967Z,4.90
2018-04-23T18:52:17.900Z,7.10